createdAt,value
2023-03-26T00:01:05.695Z,64.34
2023-03-26T00:03:33.908Z,64.06
2023-03-26T00:06:06.171Z,64.22
2023-03-26T00:08:33.473Z,64.42
2023-03-26T00:11:01.215Z,64.64
2023-03-26T00:13:28.202Z,64.62
2023-03-26T00:15:55.178Z,64.39
2023-03-26T00:18:24.815Z,64.81
2023-03-26T00:20:52.008Z,65.10
2023-03-26T00:23:18.599Z,65.11
2023-03-26T00:25:46.076Z,65.45
2023-03-26T00:28:13.494Z,65.31
2023-03-26T00:30:42.041Z,65.67
2023-03-26T00:33:11.807Z,66.23
2023-03-26T00:35:38.862Z,66.17
2023-03-26T00:38:05.417Z,66.39
2023-03-26T00:40:32.168Z,66.07
2023-03-26T00:42:58.736Z,66.41
2023-03-26T00:45:25.324Z,66.18
2023-03-26T00:47:51.909Z,66.62
2023-03-26T00:50:19.857Z,66.81
2023-03-26T00:52:46.517Z,66.99
2023-03-26T00:55:13.426Z,67.12
2023-03-26T00:57:40.672Z,66.92
2023-03-26T01:00:11.100Z,67.05
2023-03-26T01:02:38.090Z,67.32
2023-03-26T01:05:53.313Z,67.30
2023-03-26T01:08:33.354Z,66.65
2023-03-26T01:11:07.046Z,66.91
2023-03-26T01:13:38.508Z,66.77
2023-03-26T01:16:11.422Z,66.84
2023-03-26T01:18:41.132Z,66.88
2023-03-26T01:21:09.769Z,66.75
2023-03-26T01:23:51.970Z,66.73
2023-03-26T01:26:40.636Z,67.04
2023-03-26T01:29:18.768Z,66.97
2023-03-26T01:31:56.809Z,67.04
2023-03-26T01:34:52.321Z,67.06
2023-03-26T01:37:40.508Z,66.81
2023-03-26T01:40:31.746Z,66.92
2023-03-26T01:43:13.616Z,66.56
2023-03-26T01:45:42.668Z,66.67
2023-03-26T01:48:09.516Z,66.59
2023-03-26T01:50:36.243Z,66.47
2023-03-26T01:53:03.505Z,66.43
2023-03-26T01:55:53.846Z,66.37
2023-03-26T01:58:25.336Z,66.25
2023-03-26T02:01:12.783Z,66.42
2023-03-26T02:04:15.698Z,66.49
2023-03-26T02:06:51.544Z,66.21
2023-03-26T02:09:25.444Z,66.41
2023-03-26T02:11:52.174Z,66.24
2023-03-26T02:14:18.828Z,66.39
2023-03-26T02:16:46.937Z,66.51
2023-03-26T02:19:21.756Z,66.46
2023-03-26T02:21:51.383Z,66.26
2023-03-26T02:24:19.649Z,66.47
2023-03-26T02:26:46.638Z,66.50
2023-03-26T02:29:14.449Z,66.69
2023-03-26T02:34:07.587Z,66.76
2023-03-26T02:36:35.929Z,66.72
2023-03-26T02:39:03.527Z,67.01
2023-03-26T02:41:30.101Z,67.02
2023-03-26T02:43:56.664Z,67.25
2023-03-26T02:46:23.315Z,67.61
2023-03-26T02:48:49.943Z,67.84
2023-03-26T02:51:18.206Z,68.01
2023-03-26T02:53:44.943Z,68.30
2023-03-26T02:56:12.621Z,68.65
2023-03-26T02:58:39.229Z,68.72
2023-03-26T03:01:05.920Z,68.78
2023-03-26T03:03:32.578Z,69.30
2023-03-26T03:05:59.364Z,69.24
2023-03-26T03:08:28.274Z,69.72
2023-03-26T03:11:12.902Z,69.85
2023-03-26T03:13:42.177Z,69.96
2023-03-26T03:16:09.230Z,69.84
2023-03-26T03:18:36.502Z,69.84
2023-03-26T03:21:04.461Z,70.14
2023-03-26T03:23:31.335Z,70.36
2023-03-26T03:25:58.925Z,70.18
2023-03-26T03:28:26.659Z,70.34
2023-03-26T03:30:57.647Z,70.52
2023-03-26T03:33:24.390Z,70.58
2023-03-26T03:35:51.349Z,70.40
2023-03-26T03:38:17.997Z,70.44
2023-03-26T03:40:45.444Z,70.50
2023-03-26T03:43:12.141Z,70.48
2023-03-26T03:45:38.723Z,70.62
2023-03-26T03:48:05.531Z,70.68
2023-03-26T03:50:34.405Z,70.56
2023-03-26T03:53:02.959Z,70.43
2023-03-26T03:55:30.072Z,70.70
2023-03-26T03:57:58.365Z,70.62
2023-03-26T04:00:25.056Z,70.91
2023-03-26T04:02:54.499Z,70.50
2023-03-26T04:05:21.631Z,70.73
2023-03-26T04:07:48.299Z,70.57
2023-03-26T04:10:16.184Z,70.89
2023-03-26T04:12:42.755Z,71.07
2023-03-26T04:15:09.730Z,70.97
2023-03-26T04:17:42.438Z,71.05
2023-03-26T04:20:15.659Z,71.00
2023-03-26T04:22:43.974Z,71.47
2023-03-26T04:25:11.883Z,71.33
2023-03-26T04:27:41.649Z,71.19
2023-03-26T04:30:12.635Z,71.54
2023-03-26T04:32:40.454Z,71.90
2023-03-26T04:35:07.552Z,72.16
2023-03-26T04:37:40.123Z,72.08
2023-03-26T04:40:15.396Z,72.28
2023-03-26T04:42:45.958Z,72.67
2023-03-26T04:45:15.390Z,72.45
2023-03-26T04:47:42.126Z,72.90
2023-03-26T04:50:10.316Z,72.66
2023-03-26T04:52:38.074Z,73.00
2023-03-26T04:55:13.819Z,73.31
2023-03-26T04:57:46.267Z,73.49
2023-03-26T05:00:16.639Z,73.49
2023-03-26T05:02:43.631Z,73.83
2023-03-26T05:05:10.686Z,73.95
2023-03-26T05:07:37.746Z,73.84
2023-03-26T05:10:06.391Z,73.98
2023-03-26T05:12:33.072Z,74.43
2023-03-26T05:14:59.626Z,74.38
2023-03-26T05:17:26.721Z,74.50
2023-03-26T05:19:53.262Z,74.71
2023-03-26T05:22:19.821Z,75.01
2023-03-26T05:24:46.400Z,75.06
2023-03-26T05:27:17.306Z,74.71
2023-03-26T05:29:43.922Z,74.72
2023-03-26T05:32:10.995Z,74.36
2023-03-26T05:34:39.957Z,74.05
2023-03-26T05:37:07.529Z,74.42
2023-03-26T05:39:35.550Z,74.29
2023-03-26T05:42:02.627Z,74.24
2023-03-26T05:44:29.316Z,73.87
2023-03-26T05:46:55.901Z,73.71
2023-03-26T05:49:22.494Z,73.04
2023-03-26T05:51:49.104Z,73.21
2023-03-26T05:54:15.642Z,73.03
2023-03-26T05:56:42.283Z,72.55
2023-03-26T05:59:09.181Z,72.23
2023-03-26T06:01:35.795Z,71.80
2023-03-26T06:04:02.447Z,71.85
2023-03-26T06:06:29.617Z,71.85
2023-03-26T06:09:02.194Z,72.17
2023-03-26T06:11:31.121Z,72.45
2023-03-26T06:13:58.184Z,72.47
2023-03-26T06:16:27.368Z,72.39
2023-03-26T06:18:56.745Z,72.15
2023-03-26T06:21:25.612Z,71.94
2023-03-26T06:23:52.751Z,71.27
2023-03-26T06:26:19.782Z,70.77
2023-03-26T06:28:46.580Z,70.67
2023-03-26T06:31:13.359Z,70.74
2023-03-26T06:33:40.017Z,70.40
2023-03-26T06:36:06.899Z,70.25
2023-03-26T06:38:33.644Z,69.49
2023-03-26T06:41:06.190Z,68.49
2023-03-26T06:43:33.961Z,67.81
2023-03-26T06:46:04.445Z,66.60
2023-03-26T06:48:31.736Z,66.40
2023-03-26T06:50:58.418Z,65.60
2023-03-26T06:53:25.024Z,66.25
2023-03-26T06:55:53.753Z,65.45
2023-03-26T06:58:21.501Z,65.86
2023-03-26T07:00:48.122Z,64.62
2023-03-26T07:03:17.177Z,63.67
2023-03-26T07:05:43.825Z,60.74
2023-03-26T07:08:10.415Z,58.76
2023-03-26T07:10:37.027Z,59.33
2023-03-26T07:13:03.704Z,58.94
2023-03-26T07:15:30.362Z,56.95
2023-03-26T07:17:56.941Z,57.07
2023-03-26T07:20:24.156Z,56.94
2023-03-26T07:22:51.556Z,56.37
2023-03-26T07:25:19.109Z,56.53
2023-03-26T07:27:57.997Z,56.11
2023-03-26T07:30:42.052Z,55.73
2023-03-26T07:33:24.073Z,56.59
2023-03-26T07:36:03.305Z,58.31
2023-03-26T07:38:29.793Z,58.64
2023-03-26T07:41:25.564Z,59.13
2023-03-26T07:44:29.195Z,57.76
2023-03-26T07:46:56.023Z,58.31
2023-03-26T07:49:22.873Z,56.14
2023-03-26T07:51:49.715Z,53.68
2023-03-26T07:54:16.571Z,53.28
2023-03-26T07:56:55.822Z,54.20
2023-03-26T07:59:42.907Z,54.79
2023-03-26T08:02:28.907Z,55.38
2023-03-26T08:05:18.886Z,55.57
2023-03-26T08:08:20.742Z,55.52
2023-03-26T08:11:05.178Z,54.41
2023-03-26T08:14:01.146Z,54.49
2023-03-26T08:16:36.809Z,53.82
2023-03-26T08:19:10.882Z,54.14
2023-03-26T08:22:26.255Z,53.56
2023-03-26T08:25:16.723Z,53.16
2023-03-26T08:27:52.362Z,52.90
2023-03-26T08:30:24.425Z,52.93
2023-03-26T08:33:13.485Z,53.41
2023-03-26T08:35:43.325Z,53.84
2023-03-26T08:38:13.346Z,53.37
2023-03-26T08:41:10.606Z,51.49
2023-03-26T08:43:56.380Z,51.32
2023-03-26T08:46:35.074Z,51.21
2023-03-26T08:49:39.105Z,50.33
2023-03-26T08:52:42.590Z,50.20
2023-03-26T08:55:27.501Z,48.56
2023-03-26T08:57:56.949Z,48.71
2023-03-26T09:00:40.941Z,46.79
2023-03-26T09:03:25.747Z,46.41
2023-03-26T09:06:16.955Z,44.93
2023-03-26T09:09:09.655Z,44.68
2023-03-26T09:12:13.200Z,44.45
2023-03-26T09:14:56.864Z,43.18
2023-03-26T09:17:57.855Z,43.08
2023-03-26T09:20:42.709Z,43.22
2023-03-26T09:23:28.363Z,42.48
2023-03-26T09:26:22.945Z,42.42
2023-03-26T09:29:27.114Z,41.36
2023-03-26T09:32:05.815Z,41.14
2023-03-26T09:34:41.511Z,40.85
2023-03-26T09:37:18.836Z,40.29
2023-03-26T09:40:15.247Z,40.31
2023-03-26T09:42:53.797Z,40.64
2023-03-26T09:45:41.719Z,40.05
2023-03-26T09:48:30.838Z,40.58
2023-03-26T09:51:12.732Z,39.05
2023-03-26T09:54:14.592Z,39.24
2023-03-26T09:57:11.156Z,39.42
2023-03-26T09:59:59.288Z,38.78
2023-03-26T10:02:57.638Z,39.84
2023-03-26T10:05:39.141Z,40.18
2023-03-26T10:08:16.860Z,39.42
2023-03-26T10:10:51.730Z,39.91
2023-03-26T10:13:33.618Z,40.30
2023-03-26T10:16:03.024Z,40.76
2023-03-26T10:18:40.448Z,40.92
2023-03-26T10:21:26.748Z,41.22
2023-03-26T10:24:00.466Z,44.42
2023-03-26T10:27:10.386Z,49.94
2023-03-26T10:29:44.175Z,51.85
2023-03-26T10:32:29.577Z,52.05
2023-03-26T10:35:06.437Z,55.32
2023-03-26T10:38:03.923Z,56.94
2023-03-26T10:40:43.244Z,58.71
2023-03-26T10:43:54.853Z,62.04
2023-03-26T10:46:31.675Z,64.65
2023-03-26T10:49:30.394Z,65.09
2023-03-26T10:52:22.061Z,64.46
2023-03-26T10:54:56.668Z,63.16
2023-03-26T10:57:23.192Z,60.72
2023-03-26T10:59:50.811Z,59.75
2023-03-26T11:02:30.402Z,58.01
2023-03-26T11:04:57.401Z,57.38
2023-03-26T11:07:50.746Z,58.60
2023-03-26T11:10:30.482Z,60.43
2023-03-26T11:13:11.509Z,60.03
2023-03-26T11:15:54.494Z,63.54
2023-03-26T11:18:41.382Z,63.55
2023-03-26T11:21:20.846Z,62.56
2023-03-26T11:24:29.800Z,64.87
2023-03-26T11:27:15.489Z,63.88
2023-03-26T11:30:01.262Z,63.66
2023-03-26T11:32:51.727Z,63.97
2023-03-26T11:35:41.081Z,64.08
2023-03-26T11:38:32.921Z,63.77
2023-03-26T11:41:02.000Z,68.22
2023-03-26T11:43:35.021Z,68.62
2023-03-26T11:46:04.331Z,58.93
2023-03-26T11:48:40.566Z,60.43
2023-03-26T11:51:17.548Z,70.01
2023-03-26T11:53:47.433Z,67.43
2023-03-26T11:56:24.842Z,61.92
2023-03-26T11:59:05.465Z,54.03
2023-03-26T12:01:51.930Z,46.75
2023-03-26T12:04:35.422Z,42.87
2023-03-26T12:07:39.566Z,41.96
2023-03-26T12:10:20.519Z,42.13
2023-03-26T12:12:48.225Z,47.14
2023-03-26T12:15:20.497Z,44.26
2023-03-26T12:17:56.428Z,41.56
2023-03-26T12:20:25.802Z,41.65
2023-03-26T12:23:00.015Z,45.54
2023-03-26T12:25:27.616Z,41.62
2023-03-26T12:28:02.601Z,40.32
2023-03-26T12:30:33.814Z,42.70
2023-03-26T12:33:03.700Z,38.71
2023-03-26T12:35:34.284Z,37.07
2023-03-26T12:38:16.049Z,32.62
2023-03-26T12:40:43.335Z,28.33
2023-03-26T12:44:46.085Z,28.02
2023-03-26T12:47:56.075Z,24.46
2023-03-26T12:49:24.657Z,26.50
2023-03-26T12:51:58.054Z,27.03
2023-03-26T12:54:28.848Z,27.57
2023-03-26T12:57:12.132Z,27.65
2023-03-26T12:59:42.612Z,27.85
2023-03-26T13:02:51.366Z,28.97
2023-03-26T13:05:29.714Z,30.32
2023-03-26T13:08:17.943Z,30.40
2023-03-26T13:10:50.695Z,30.91
2023-03-26T13:13:37.469Z,32.20
2023-03-26T13:16:21.755Z,31.48
2023-03-26T13:18:59.459Z,30.02
2023-03-26T13:21:34.989Z,29.23
2023-03-26T13:24:01.704Z,29.16
2023-03-26T13:26:40.436Z,30.06
2023-03-26T13:29:28.581Z,29.26
2023-03-26T13:32:29.828Z,27.96
2023-03-26T13:35:21.369Z,26.15
2023-03-26T13:38:10.984Z,27.37
2023-03-26T13:40:46.681Z,28.72
2023-03-26T13:43:13.172Z,30.56
2023-03-26T13:46:04.278Z,29.78
2023-03-26T13:48:56.107Z,31.11
2023-03-26T13:51:36.167Z,29.82
2023-03-26T13:54:16.319Z,29.72
2023-03-26T13:57:08.159Z,30.18
2023-03-26T13:59:43.939Z,30.01
2023-03-26T14:02:18.240Z,29.52
2023-03-26T14:04:49.533Z,29.88
2023-03-26T14:07:27.991Z,30.33
2023-03-26T14:10:01.239Z,27.67
2023-03-26T14:12:53.796Z,25.60
2023-03-26T14:15:45.936Z,24.39
2023-03-26T14:18:37.500Z,24.50
2023-03-26T14:21:13.103Z,25.96
2023-03-26T14:23:58.999Z,24.66
2023-03-26T14:27:03.877Z,23.69
2023-03-26T14:29:56.557Z,22.93
2023-03-26T14:32:40.755Z,23.37
2023-03-26T14:35:37.756Z,21.96
2023-03-26T14:38:48.834Z,19.50
2023-03-26T14:41:53.682Z,19.33
2023-03-26T14:44:48.048Z,19.11
2023-03-26T14:47:19.376Z,19.34
2023-03-26T14:50:10.602Z,19.57
2023-03-26T14:52:48.867Z,20.09
2023-03-26T14:55:53.498Z,20.38
2023-03-26T14:58:33.984Z,21.27
2023-03-26T15:01:21.710Z,20.80
2023-03-26T15:04:26.012Z,21.03
2023-03-26T15:07:04.882Z,21.31
2023-03-26T15:10:08.858Z,20.75
2023-03-26T15:12:47.343Z,21.04
2023-03-26T15:15:13.897Z,21.75
2023-03-26T15:18:17.786Z,22.42
2023-03-26T15:20:50.008Z,22.75
2023-03-26T15:23:31.732Z,22.62
2023-03-26T15:26:11.198Z,23.48
2023-03-26T15:29:04.040Z,23.62
2023-03-26T15:31:36.945Z,23.88
2023-03-26T15:34:56.054Z,22.67
2023-03-26T15:37:58.837Z,22.38
2023-03-26T15:40:43.444Z,22.73
2023-03-26T15:43:14.154Z,23.33
2023-03-26T15:45:53.852Z,23.90
2023-03-26T15:48:30.131Z,24.45
2023-03-26T15:51:47.491Z,24.89
2023-03-26T15:54:29.527Z,25.63
2023-03-26T15:57:22.000Z,25.84
2023-03-26T16:00:01.372Z,26.00
2023-03-26T16:02:44.126Z,26.03
2023-03-26T16:05:22.710Z,25.75
2023-03-26T16:08:38.785Z,25.97
2023-03-26T16:11:09.349Z,26.99
2023-03-26T16:13:37.812Z,27.42
2023-03-26T16:16:04.473Z,28.12
2023-03-26T16:18:31.200Z,28.57
2023-03-26T16:21:31.825Z,29.17
2023-03-26T16:24:02.134Z,30.09
2023-03-26T16:26:31.781Z,29.79
2023-03-26T16:29:14.302Z,30.09
2023-03-26T16:31:59.857Z,30.91
2023-03-26T16:35:03.386Z,30.99
2023-03-26T16:37:36.331Z,31.15
2023-03-26T16:40:27.737Z,31.69
2023-03-26T16:43:19.690Z,31.70
2023-03-26T16:46:02.503Z,31.83
2023-03-26T16:48:46.041Z,32.03
2023-03-26T16:51:40.027Z,32.38
2023-03-26T16:54:29.343Z,32.60
2023-03-26T16:57:24.939Z,32.55
2023-03-26T17:00:07.561Z,32.94
2023-03-26T17:02:42.939Z,33.04
2023-03-26T17:05:34.267Z,33.31
2023-03-26T17:08:42.567Z,33.47
2023-03-26T17:11:56.596Z,34.14
2023-03-26T17:14:38.010Z,34.12
2023-03-26T17:17:18.186Z,34.05
2023-03-26T17:20:11.647Z,34.56
2023-03-26T17:23:02.570Z,34.73
2023-03-26T17:25:31.913Z,34.96
2023-03-26T17:28:19.825Z,35.31
2023-03-26T17:31:26.374Z,35.62
2023-03-26T17:33:53.741Z,35.44
2023-03-26T17:36:28.103Z,35.56
2023-03-26T17:39:00.821Z,35.86
2023-03-26T17:42:10.480Z,37.61
2023-03-26T17:44:50.011Z,36.25
2023-03-26T17:47:23.957Z,37.04
2023-03-26T17:49:58.358Z,36.52
2023-03-26T17:52:33.961Z,37.29
2023-03-26T17:55:02.036Z,36.99
2023-03-26T17:57:57.728Z,36.92
2023-03-26T18:00:31.608Z,37.34
2023-03-26T18:03:06.709Z,37.72
2023-03-26T18:05:38.002Z,37.79
2023-03-26T18:08:19.893Z,38.65
2023-03-26T18:10:55.372Z,38.30
2023-03-26T18:13:59.546Z,39.84
2023-03-26T18:16:45.777Z,40.42
2023-03-26T18:19:25.008Z,41.42
2023-03-26T18:21:54.056Z,41.42
2023-03-26T18:24:31.487Z,41.95
2023-03-26T18:27:21.827Z,42.63
2023-03-26T18:29:57.217Z,42.67
2023-03-26T18:32:33.507Z,42.06
2023-03-26T18:35:21.990Z,43.69
2023-03-26T18:37:51.976Z,43.56
2023-03-26T18:40:21.428Z,44.83
2023-03-26T18:42:55.727Z,45.31
2023-03-26T18:45:37.412Z,45.56
2023-03-26T18:48:11.338Z,46.02
2023-03-26T18:50:41.819Z,45.69
2023-03-26T18:53:20.145Z,44.42
2023-03-26T18:55:47.948Z,44.08
2023-03-26T18:58:34.448Z,46.62
2023-03-26T19:01:04.562Z,46.29
2023-03-26T19:03:38.348Z,46.60
2023-03-26T19:06:10.189Z,46.89
2023-03-26T19:08:39.277Z,48.61
2023-03-26T19:11:08.323Z,48.43
2023-03-26T19:13:36.475Z,49.18
2023-03-26T19:16:09.121Z,50.71
2023-03-26T19:18:37.776Z,50.56
2023-03-26T19:21:10.626Z,51.68
2023-03-26T19:23:41.115Z,50.44
2023-03-26T19:26:10.472Z,52.55
2023-03-26T19:28:41.831Z,53.65
2023-03-26T19:31:36.118Z,54.35
2023-03-26T19:34:11.905Z,55.29
2023-03-26T19:36:52.177Z,55.70
2023-03-26T19:39:36.491Z,55.13
2023-03-26T19:42:06.416Z,55.81
2023-03-26T19:44:33.503Z,56.56
2023-03-26T19:47:15.004Z,54.50
2023-03-26T19:49:56.500Z,57.87
2023-03-26T19:52:28.016Z,58.11
2023-03-26T19:55:15.330Z,59.95
2023-03-26T19:57:43.146Z,58.09
2023-03-26T20:00:13.721Z,58.59
2023-03-26T20:02:42.356Z,59.62
2023-03-26T20:05:19.053Z,60.33
2023-03-26T20:07:47.928Z,60.30
2023-03-26T20:10:14.569Z,59.37
2023-03-26T20:12:41.153Z,60.07
2023-03-26T20:15:20.190Z,60.42
2023-03-26T20:17:50.014Z,60.30
2023-03-26T20:20:17.483Z,59.68
2023-03-26T20:22:47.019Z,57.01
2023-03-26T20:27:53.077Z,58.67
2023-03-26T20:30:36.393Z,57.98
2023-03-26T20:33:13.304Z,58.23
2023-03-26T20:35:41.280Z,58.21
2023-03-26T20:38:09.721Z,58.51
2023-03-26T20:40:37.164Z,60.40
2023-03-26T20:43:03.778Z,61.06
2023-03-26T20:45:30.380Z,62.03
2023-03-26T20:47:57.512Z,61.52
2023-03-26T20:50:24.480Z,61.39
2023-03-26T20:52:51.163Z,61.31
2023-03-26T20:55:21.715Z,61.21
2023-03-26T20:57:48.948Z,61.40
2023-03-26T21:00:23.000Z,61.47
2023-03-26T21:02:54.142Z,63.93
2023-03-26T21:05:26.974Z,62.65
2023-03-26T21:07:55.803Z,62.78
2023-03-26T21:10:25.996Z,61.82
2023-03-26T21:13:21.687Z,61.83
2023-03-26T21:15:49.029Z,63.21
2023-03-26T21:18:15.823Z,63.11
2023-03-26T21:20:51.705Z,63.04
2023-03-26T21:23:30.232Z,62.17
2023-03-26T21:26:02.720Z,60.58
2023-03-26T21:28:39.808Z,59.63
2023-03-26T21:31:15.482Z,57.54
2023-03-26T21:33:42.584Z,57.71
2023-03-26T21:36:10.828Z,57.35
2023-03-26T21:38:37.923Z,57.60
2023-03-26T21:41:05.107Z,58.36
2023-03-26T21:43:31.963Z,59.63
2023-03-26T21:45:58.915Z,60.72
2023-03-26T21:48:26.001Z,61.00
2023-03-26T21:50:53.067Z,62.05
2023-03-26T21:53:20.098Z,62.76
2023-03-26T21:56:17.657Z,62.95
2023-03-26T21:59:10.488Z,64.06
2023-03-26T22:01:57.356Z,68.31
2023-03-26T22:04:46.194Z,65.45
2023-03-26T22:07:51.516Z,67.88
2023-03-26T22:10:18.608Z,67.50
2023-03-26T22:12:45.239Z,68.07
2023-03-26T22:15:13.892Z,70.34
2023-03-26T22:17:42.027Z,71.11
2023-03-26T22:20:12.982Z,70.79
2023-03-26T22:22:48.956Z,70.69
2023-03-26T22:25:19.724Z,71.63
2023-03-26T22:27:47.818Z,72.20
2023-03-26T22:30:15.666Z,72.40
2023-03-26T22:32:43.619Z,72.64
2023-03-26T22:35:10.466Z,73.04
2023-03-26T22:37:37.365Z,73.38
2023-03-26T22:40:08.376Z,73.62
2023-03-26T22:42:36.239Z,74.59
2023-03-26T22:45:03.149Z,74.69
2023-03-26T22:47:30.736Z,74.80
2023-03-26T22:49:57.436Z,76.46
2023-03-26T22:52:24.055Z,76.61
2023-03-26T22:54:50.647Z,77.39
2023-03-26T22:57:17.278Z,77.33
2023-03-26T22:59:43.874Z,77.40
2023-03-26T23:02:12.321Z,77.88
2023-03-26T23:04:39.111Z,78.83
2023-03-26T23:07:06.020Z,79.33
2023-03-26T23:09:32.665Z,79.65
2023-03-26T23:11:59.348Z,80.52
2023-03-26T23:14:26.336Z,81.56
2023-03-26T23:16:52.907Z,83.59
2023-03-26T23:19:19.556Z,83.92
2023-03-26T23:21:46.354Z,84.69
2023-03-26T23:24:13.161Z,85.56
2023-03-26T23:26:49.704Z,85.44
2023-03-26T23:29:17.514Z,86.00
2023-03-26T23:31:44.196Z,85.46
2023-03-26T23:34:13.450Z,86.17
2023-03-26T23:36:40.879Z,85.88
2023-03-26T23:39:08.416Z,85.54
2023-03-26T23:41:35.169Z,85.81
2023-03-26T23:44:01.774Z,85.11
2023-03-26T23:46:34.676Z,86.02
2023-03-26T23:49:03.470Z,86.76
2023-03-26T23:51:30.912Z,86.00
2023-03-26T23:53:57.845Z,85.27
2023-03-26T23:56:24.754Z,86.15
2023-03-26T23:58:51.347Z,85.49
